Plainwell, MI (49080)

8:34 AM EST on January 25, 2015 (GMT -0500)
Open country area | Change Station
CLOSE
Current Station
Personal Weather Station
Location: Plainwell, MI
Elevation: 853 ft
Nearby Weather Stations

Elev 853 ft 42.46 °N, 85.57 °W | Updated 18 seconds ago

Overcast
Overcast
27.0 °F
Feels Like 20 °F
N
6.0
Wind Variable Wind from North
Gusts 7.0 mph

Today
High -- | Low -- °F
--% Chance of Precip.
Yesterday
High -- | Low -- °F
Precip. -- in
8:03 AM 5:47 PM
Waxing Crescent, 32% visible
Pressure 29.79 in
Visibility 2.5 miles
Clouds Overcast 1200 ft
Windchill 20 °F
Dew Point 26 °F
Humidity 90%
Rainfall 0.00 in
Snow Depth Not available.
UV 0 out of 12
Pollen .10 out of 12
Air Quality Not available.
Flu Activity Not available.
SPECI KAZO 251330Z 06010G19KT 2 1/2SM -SN OVC012 M01/M04 A2979 RMK AO2 SNB12 P0000 T10111044 $

More Conditions Fewer Conditions

Pressure 29.79 in
Visibility 2.5 miles
Clouds Overcast 1200 ft
Windchill 20 °F
Dew Point 26 °F
Humidity 90%
Rainfall 0.00 in
Snow Depth Not available.
UV 0 out of 12
Pollen .10 out of 12
Air Quality Not available.
Flu Activity Not available.
SPECI KAZO 251330Z 06010G19KT 2 1/2SM -SN OVC012 M01/M04 A2979 RMK AO2 SNB12 P0000 T10111044 $

More Conditions Fewer Conditions

10-Day Weather Forecast

Almanac

Astronomy

Jan. 25, 2015 Rise Set
Actual Time
Civil Twilight
Nautical Twilight
Astronomical Twilight
Moon
Length of Visible Light
Length of Day
Tomorrow will be .
, % of the Moon is Illuminated

Today's Extremes

State Highs State Lows

Community

WunderPhotos

Upload Photos

1,789,883 photos uploaded!

WunderBlogs® & News

Nearby

Air Quality

  Air Quality AQ Index Pollutant
Not available.

Snow Depth

Station Depth Elevation

Earthquake Activity

City Distance Mag. Time & Date
Minimum magnitude displayed is 2.5.

Coastal Water Temperatures

Place Temperature

Nearby Weather Stations